createdAt,value
2023-03-26T00:01:46.847Z,91.20
2023-03-26T00:04:14.254Z,91.20
2023-03-26T00:06:42.098Z,91.10
2023-03-26T00:09:13.768Z,91.10
2023-03-26T00:11:43.464Z,91.00
2023-03-26T00:14:13.990Z,90.90
2023-03-26T00:16:42.991Z,90.80
2023-03-26T00:19:11.502Z,90.80
2023-03-26T00:21:38.285Z,90.70
2023-03-26T00:24:15.126Z,90.70
2023-03-26T00:26:43.561Z,90.70
2023-03-26T00:29:14.104Z,90.70
2023-03-26T00:31:45.870Z,90.60
2023-03-26T00:34:17.604Z,90.70
2023-03-26T00:36:47.408Z,90.70
2023-03-26T00:39:18.108Z,90.80
2023-03-26T00:41:44.904Z,90.80
2023-03-26T00:44:13.945Z,90.80
2023-03-26T00:46:41.176Z,90.80
2023-03-26T00:49:14.998Z,90.80
2023-03-26T00:51:42.540Z,90.80
2023-03-26T00:54:09.609Z,90.80
2023-03-26T00:56:37.033Z,90.80
2023-03-26T00:59:04.480Z,90.70
2023-03-26T01:01:32.665Z,90.80
2023-03-26T01:04:28.521Z,90.70
2023-03-26T01:06:58.793Z,90.70
2023-03-26T01:09:36.074Z,90.70
2023-03-26T01:12:06.880Z,90.60
2023-03-26T01:14:36.320Z,90.50
2023-03-26T01:17:07.221Z,90.70
2023-03-26T01:19:40.183Z,90.80
2023-03-26T01:22:11.478Z,91.00
2023-03-26T01:24:39.894Z,91.00
2023-03-26T01:27:21.125Z,91.20
2023-03-26T01:30:11.761Z,91.30
2023-03-26T01:33:20.581Z,91.60
2023-03-26T01:35:56.613Z,91.80
2023-03-26T01:38:46.790Z,91.90
2023-03-26T01:41:37.775Z,92.10
2023-03-26T01:44:16.877Z,92.30
2023-03-26T01:46:44.647Z,92.50
2023-03-26T01:49:13.717Z,92.60
2023-03-26T01:51:44.859Z,92.70
2023-03-26T01:54:19.009Z,92.70
2023-03-26T01:56:45.933Z,92.50
2023-03-26T01:59:46.018Z,92.50
2023-03-26T02:02:17.771Z,92.30
2023-03-26T02:05:06.279Z,92.30
2023-03-26T02:07:38.163Z,92.10
2023-03-26T02:10:16.520Z,91.90
2023-03-26T02:12:46.459Z,91.80
2023-03-26T02:15:13.899Z,91.80
2023-03-26T02:17:41.073Z,91.90
2023-03-26T02:20:10.870Z,91.90
2023-03-26T02:22:46.289Z,91.90
2023-03-26T02:25:19.345Z,91.90
2023-03-26T02:27:49.829Z,92.00
2023-03-26T02:30:25.902Z,92.10
2023-03-26T02:32:59.110Z,92.20
2023-03-26T02:35:30.883Z,92.40
2023-03-26T02:38:00.492Z,92.30
2023-03-26T02:40:28.070Z,92.50
2023-03-26T02:42:55.639Z,92.60
2023-03-26T02:45:23.469Z,92.70
2023-03-26T02:47:51.328Z,92.80
2023-03-26T02:50:37.691Z,93.00
2023-03-26T02:53:29.977Z,93.20
2023-03-26T02:56:17.585Z,93.30
2023-03-26T02:58:59.340Z,93.50
2023-03-26T03:01:27.102Z,93.80
2023-03-26T03:03:55.467Z,93.90
2023-03-26T03:06:38.416Z,94.10
2023-03-26T03:09:08.530Z,94.10
2023-03-26T03:11:36.327Z,94.10
2023-03-26T03:14:06.189Z,94.10
2023-03-26T03:16:34.763Z,93.90
2023-03-26T03:19:14.304Z,93.80
2023-03-26T03:21:44.155Z,93.80
2023-03-26T03:24:11.967Z,93.80
2023-03-26T03:26:46.508Z,93.80
2023-03-26T03:29:30.507Z,93.80
2023-03-26T03:32:03.194Z,93.90
2023-03-26T03:34:50.817Z,93.80
2023-03-26T03:37:19.667Z,93.80
2023-03-26T03:39:53.387Z,93.80
2023-03-26T03:42:24.107Z,93.80
2023-03-26T03:44:55.841Z,93.70
2023-03-26T03:47:47.037Z,93.60
2023-03-26T03:50:17.806Z,93.50
2023-03-26T03:53:09.856Z,93.40
2023-03-26T03:55:39.698Z,93.30
2023-03-26T03:58:09.225Z,93.20
2023-03-26T04:00:42.279Z,93.30
2023-03-26T04:03:34.144Z,93.30
2023-03-26T04:06:07.236Z,93.30
2023-03-26T04:08:35.551Z,93.40
2023-03-26T04:11:06.387Z,93.40
2023-03-26T04:13:54.141Z,93.40
2023-03-26T04:16:29.951Z,93.50
2023-03-26T04:19:02.602Z,93.50
2023-03-26T04:21:31.183Z,93.60
2023-03-26T04:24:03.146Z,93.70
2023-03-26T04:26:51.291Z,93.80
2023-03-26T04:29:28.001Z,93.90
2023-03-26T04:31:59.067Z,93.90
2023-03-26T04:34:27.240Z,94.00
2023-03-26T04:37:27.916Z,94.10
2023-03-26T04:40:15.435Z,94.10
2023-03-26T04:42:54.888Z,94.20
2023-03-26T04:45:34.693Z,94.20
2023-03-26T04:48:02.579Z,94.20
2023-03-26T04:50:32.717Z,94.10
2023-03-26T04:53:04.465Z,94.10
2023-03-26T04:56:24.620Z,94.10
2023-03-26T04:59:15.983Z,94.00
2023-03-26T05:01:48.757Z,94.00
2023-03-26T05:04:19.251Z,93.90
2023-03-26T05:06:46.702Z,94.00
2023-03-26T05:09:29.239Z,94.10
2023-03-26T05:12:19.331Z,94.00
2023-03-26T05:15:13.141Z,94.10
2023-03-26T05:18:01.974Z,94.20
2023-03-26T05:20:54.835Z,94.10
2023-03-26T05:23:22.131Z,94.10
2023-03-26T05:26:03.101Z,94.10
2023-03-26T05:28:30.201Z,94.10
2023-03-26T05:31:10.673Z,94.00
2023-03-26T05:33:43.701Z,94.00
2023-03-26T05:36:15.167Z,93.90
2023-03-26T05:38:50.005Z,93.90
2023-03-26T05:41:53.606Z,93.90
2023-03-26T05:44:27.324Z,93.80
2023-03-26T05:46:54.822Z,93.80
2023-03-26T05:49:26.248Z,93.80
2023-03-26T05:51:55.984Z,93.80
2023-03-26T05:54:49.012Z,93.70
2023-03-26T05:57:40.012Z,93.70
2023-03-26T06:00:29.850Z,93.70
2023-03-26T06:02:57.508Z,93.70
2023-03-26T06:05:56.662Z,93.60
2023-03-26T06:08:41.469Z,93.70
2023-03-26T06:11:08.965Z,93.70
2023-03-26T06:13:39.642Z,93.70
2023-03-26T06:16:10.391Z,93.60
2023-03-26T06:19:11.803Z,93.60
2023-03-26T06:21:59.346Z,93.60
2023-03-26T06:24:31.110Z,93.60
2023-03-26T06:27:30.784Z,93.50
2023-03-26T06:30:18.864Z,93.40
2023-03-26T06:33:05.307Z,93.40
2023-03-26T06:35:38.510Z,93.50
2023-03-26T06:38:07.672Z,93.70
2023-03-26T06:40:35.277Z,93.80
2023-03-26T06:43:34.092Z,94.10
2023-03-26T06:46:16.838Z,94.30
2023-03-26T06:49:02.364Z,94.40
2023-03-26T06:51:48.744Z,94.40
2023-03-26T06:54:38.032Z,94.50
2023-03-26T06:57:39.931Z,94.60
2023-03-26T07:00:25.800Z,94.60
2023-03-26T07:03:11.630Z,94.50
2023-03-26T07:05:57.394Z,94.50
2023-03-26T07:08:42.958Z,94.40
2023-03-26T07:11:44.929Z,94.40
2023-03-26T07:14:39.102Z,94.60
2023-03-26T07:17:32.338Z,94.50
2023-03-26T07:20:24.472Z,94.40
2023-03-26T07:22:53.158Z,94.50
2023-03-26T07:25:39.139Z,94.40
2023-03-26T07:28:39.503Z,94.40
2023-03-26T07:31:29.739Z,94.20
2023-03-26T07:34:46.554Z,94.30
2023-03-26T07:38:06.429Z,94.10
2023-03-26T07:40:50.065Z,94.20
2023-03-26T07:43:54.569Z,94.40
2023-03-26T07:46:34.105Z,94.50
2023-03-26T07:49:20.820Z,94.40
2023-03-26T07:52:11.191Z,94.40
2023-03-26T07:55:06.274Z,94.40
2023-03-26T07:58:28.716Z,94.60
2023-03-26T08:01:54.233Z,94.70
2023-03-26T08:04:49.765Z,94.70
2023-03-26T08:08:04.313Z,95.00
2023-03-26T08:10:54.931Z,95.20
2023-03-26T08:13:50.046Z,95.40
2023-03-26T08:16:27.625Z,95.40
2023-03-26T08:19:26.482Z,95.60
2023-03-26T08:22:01.582Z,95.60
2023-03-26T08:25:01.407Z,95.40
2023-03-26T08:27:43.998Z,95.40
2023-03-26T08:30:36.131Z,95.40
2023-03-26T08:33:11.532Z,95.40
2023-03-26T08:35:42.364Z,95.60
2023-03-26T08:38:10.964Z,95.60
2023-03-26T08:40:59.786Z,95.50
2023-03-26T08:44:06.995Z,95.60
2023-03-26T08:46:51.884Z,95.70
2023-03-26T08:49:40.650Z,95.70
2023-03-26T08:52:32.538Z,95.80
2023-03-26T08:55:23.181Z,95.70
2023-03-26T08:58:14.450Z,95.80
2023-03-26T09:01:20.082Z,95.90
2023-03-26T09:03:59.234Z,96.00
2023-03-26T09:07:06.821Z,96.10
2023-03-26T09:09:59.153Z,96.20
2023-03-26T09:12:38.635Z,96.30
2023-03-26T09:15:27.510Z,96.40
2023-03-26T09:18:03.467Z,96.40
2023-03-26T09:21:11.503Z,96.40
2023-03-26T09:23:41.571Z,96.60
2023-03-26T09:26:30.348Z,96.40
2023-03-26T09:29:12.698Z,96.50
2023-03-26T09:32:14.360Z,96.60
2023-03-26T09:35:13.287Z,96.60
2023-03-26T09:38:22.443Z,96.60
2023-03-26T09:41:34.602Z,96.70
2023-03-26T09:44:16.469Z,96.70
2023-03-26T09:47:11.415Z,96.70
2023-03-26T09:50:03.014Z,96.80
2023-03-26T09:52:45.777Z,96.80
2023-03-26T09:55:31.227Z,96.70
2023-03-26T09:58:13.466Z,96.70
2023-03-26T10:01:05.713Z,96.80
2023-03-26T10:03:55.003Z,96.80
2023-03-26T10:06:58.066Z,96.80
2023-03-26T10:09:34.651Z,96.70
2023-03-26T10:12:43.902Z,96.60
2023-03-26T10:15:25.256Z,96.60
2023-03-26T10:18:27.284Z,96.60
2023-03-26T10:21:17.538Z,96.60
2023-03-26T10:23:45.575Z,96.70
2023-03-26T10:26:30.524Z,96.80
2023-03-26T10:29:35.400Z,96.70
2023-03-26T10:32:13.222Z,96.50
2023-03-26T10:35:34.654Z,96.20
2023-03-26T10:38:38.681Z,96.00
2023-03-26T10:41:18.977Z,96.00
2023-03-26T10:44:08.745Z,96.10
2023-03-26T10:47:08.739Z,96.30
2023-03-26T10:50:09.207Z,96.50
2023-03-26T10:52:47.156Z,96.60
2023-03-26T10:55:19.713Z,96.30
2023-03-26T10:57:56.902Z,96.30
2023-03-26T11:00:26.711Z,95.90
2023-03-26T11:03:30.846Z,95.80
2023-03-26T11:06:23.683Z,95.80
2023-03-26T11:09:21.596Z,95.80
2023-03-26T11:12:25.628Z,95.30
2023-03-26T11:15:25.935Z,94.50
2023-03-26T11:18:07.822Z,94.60
2023-03-26T11:20:49.902Z,95.10
2023-03-26T11:23:37.122Z,94.50
2023-03-26T11:26:13.459Z,93.10
2023-03-26T11:29:32.404Z,93.60
2023-03-26T11:32:15.843Z,92.80
2023-03-26T11:35:04.526Z,93.10
2023-03-26T11:37:53.821Z,93.70
2023-03-26T11:40:42.063Z,93.60
2023-03-26T11:43:20.122Z,93.80
2023-03-26T11:45:50.708Z,93.60
2023-03-26T11:48:40.099Z,94.10
2023-03-26T11:51:12.774Z,93.30
2023-03-26T11:53:40.239Z,93.00
2023-03-26T11:56:41.541Z,93.40
2023-03-26T11:59:42.205Z,93.00
2023-03-26T12:02:29.557Z,93.10
2023-03-26T12:05:21.186Z,92.40
2023-03-26T12:08:00.119Z,91.60
2023-03-26T12:10:29.467Z,90.60
2023-03-26T12:13:00.108Z,91.10
2023-03-26T12:15:28.466Z,91.00
2023-03-26T12:17:58.528Z,91.00
2023-03-26T12:20:25.430Z,91.10
2023-03-26T12:22:59.335Z,91.10
2023-03-26T12:25:32.435Z,91.10
2023-03-26T12:28:05.187Z,91.10
2023-03-26T12:30:38.223Z,90.80
2023-03-26T12:33:09.684Z,91.20
2023-03-26T12:35:36.975Z,91.40
2023-03-26T12:38:34.955Z,91.20
2023-03-26T12:44:42.959Z,90.90
2023-03-26T12:44:52.999Z,91.10
2023-03-26T12:47:57.723Z,90.80
2023-03-26T12:50:06.138Z,90.80
2023-03-26T12:52:43.113Z,91.00
2023-03-26T12:55:36.808Z,91.50
2023-03-26T12:58:34.123Z,91.30
2023-03-26T13:01:16.680Z,91.50
2023-03-26T13:04:05.447Z,91.70
2023-03-26T13:06:59.924Z,91.50
2023-03-26T13:10:00.262Z,90.30
2023-03-26T13:12:47.287Z,89.30
2023-03-26T13:15:22.786Z,87.70
2023-03-26T13:18:06.463Z,84.70
2023-03-26T13:20:45.581Z,86.10
2023-03-26T13:23:39.762Z,87.20
2023-03-26T13:26:58.415Z,88.10
2023-03-26T13:30:08.611Z,87.00
2023-03-26T13:33:13.852Z,87.40
2023-03-26T13:36:21.930Z,85.30
2023-03-26T13:38:59.334Z,84.00
2023-03-26T13:41:52.974Z,82.60
2023-03-26T13:44:33.597Z,84.30
2023-03-26T13:47:42.253Z,83.00
2023-03-26T13:50:31.865Z,82.80
2023-03-26T13:53:06.827Z,83.10
2023-03-26T13:55:37.883Z,82.30
2023-03-26T13:58:34.495Z,81.10
2023-03-26T14:01:16.860Z,82.70
2023-03-26T14:04:11.463Z,80.30
2023-03-26T14:06:57.589Z,80.10
2023-03-26T14:09:31.000Z,79.30
2023-03-26T14:11:58.057Z,79.70
2023-03-26T14:14:51.146Z,78.70
2023-03-26T14:17:25.588Z,78.60
2023-03-26T14:20:17.969Z,77.00
2023-03-26T14:23:17.627Z,71.80
2023-03-26T14:26:23.797Z,72.10
2023-03-26T14:29:12.584Z,70.70
2023-03-26T14:31:46.712Z,72.20
2023-03-26T14:34:52.012Z,74.00
2023-03-26T14:37:53.022Z,76.90
2023-03-26T14:40:32.822Z,80.90
2023-03-26T14:43:23.846Z,82.10
2023-03-26T14:46:14.782Z,86.70
2023-03-26T14:49:05.780Z,89.90
2023-03-26T14:51:54.959Z,90.70
2023-03-26T14:54:27.756Z,92.20
2023-03-26T14:57:33.420Z,93.30
2023-03-26T15:00:47.879Z,93.50
2023-03-26T15:03:53.422Z,92.00
2023-03-26T15:06:32.843Z,92.00
2023-03-26T15:09:41.368Z,93.10
2023-03-26T15:12:46.603Z,91.80
2023-03-26T15:15:33.136Z,91.80
2023-03-26T15:18:50.910Z,92.40
2023-03-26T15:21:54.228Z,93.90
2023-03-26T15:24:50.626Z,94.80
2023-03-26T15:27:57.511Z,95.30
2023-03-26T15:30:48.025Z,95.40
2023-03-26T15:33:41.701Z,95.30
2023-03-26T15:36:38.526Z,95.70
2023-03-26T15:39:25.560Z,95.70
2023-03-26T15:42:22.573Z,95.70
2023-03-26T15:44:59.041Z,96.00
2023-03-26T15:47:50.753Z,96.10
2023-03-26T15:50:47.259Z,96.30
2023-03-26T15:53:49.106Z,96.30
2023-03-26T15:57:02.270Z,96.40
2023-03-26T15:59:43.005Z,96.50
2023-03-26T16:02:34.969Z,96.50
2023-03-26T16:05:30.163Z,96.60
2023-03-26T16:08:38.889Z,96.70
2023-03-26T16:11:19.588Z,96.70
2023-03-26T16:14:08.103Z,96.70
2023-03-26T16:16:58.694Z,96.80
2023-03-26T16:19:36.364Z,96.80
2023-03-26T16:22:11.742Z,96.80
2023-03-26T16:24:44.203Z,96.80
2023-03-26T16:27:14.005Z,96.90
2023-03-26T16:30:02.936Z,96.80
2023-03-26T16:32:42.157Z,96.50
2023-03-26T16:35:19.052Z,96.30
2023-03-26T16:37:50.866Z,96.30
2023-03-26T16:40:50.764Z,96.30
2023-03-26T16:43:34.824Z,96.20
2023-03-26T16:46:46.094Z,96.40
2023-03-26T16:49:25.283Z,96.40
2023-03-26T16:52:15.428Z,96.50
2023-03-26T16:55:04.651Z,96.70
2023-03-26T16:58:03.251Z,96.70
2023-03-26T17:00:48.260Z,96.70
2023-03-26T17:03:31.205Z,96.60
2023-03-26T17:06:06.380Z,96.60
2023-03-26T17:09:19.804Z,96.70
2023-03-26T17:12:26.304Z,96.70
2023-03-26T17:15:06.672Z,96.70
2023-03-26T17:18:01.447Z,96.80
2023-03-26T17:20:51.117Z,96.70
2023-03-26T17:23:47.364Z,96.80
2023-03-26T17:26:45.824Z,96.80
2023-03-26T17:29:32.618Z,96.90
2023-03-26T17:32:12.803Z,96.90
2023-03-26T17:34:52.890Z,96.90
2023-03-26T17:37:22.726Z,96.90
2023-03-26T17:39:55.520Z,96.90
2023-03-26T17:42:42.177Z,96.90
2023-03-26T17:45:17.730Z,97.00
2023-03-26T17:48:19.857Z,97.00
2023-03-26T17:51:12.869Z,97.00
2023-03-26T17:53:41.791Z,97.00
2023-03-26T17:56:30.056Z,97.00
2023-03-26T17:59:11.929Z,97.10
2023-03-26T18:01:44.832Z,97.30
2023-03-26T18:04:19.901Z,97.10
2023-03-26T18:07:06.751Z,97.20
2023-03-26T18:09:49.225Z,97.20
2023-03-26T18:12:31.681Z,97.30
2023-03-26T18:15:54.846Z,97.30
2023-03-26T18:18:33.305Z,97.30
2023-03-26T18:21:04.522Z,97.30
2023-03-26T18:23:45.147Z,97.30
2023-03-26T18:26:33.344Z,97.30
2023-03-26T18:29:15.602Z,97.40
2023-03-26T18:31:44.404Z,97.40
2023-03-26T18:34:19.837Z,97.40
2023-03-26T18:36:59.878Z,97.40
2023-03-26T18:39:28.326Z,97.60
2023-03-26T18:41:55.440Z,97.40
2023-03-26T18:44:24.053Z,97.40
2023-03-26T18:46:57.188Z,97.40
2023-03-26T18:49:27.092Z,97.40
2023-03-26T18:51:57.591Z,97.40
2023-03-26T18:54:30.830Z,97.40
2023-03-26T18:57:15.399Z,97.40
2023-03-26T18:59:45.735Z,97.40
2023-03-26T19:02:16.419Z,97.50
2023-03-26T19:04:46.971Z,97.50
2023-03-26T19:07:25.054Z,97.50
2023-03-26T19:09:57.121Z,97.50
2023-03-26T19:12:36.437Z,97.50
2023-03-26T19:15:18.185Z,97.50
2023-03-26T19:17:54.123Z,97.40
2023-03-26T19:20:28.230Z,97.50
2023-03-26T19:22:58.228Z,97.50
2023-03-26T19:25:55.050Z,97.50
2023-03-26T19:28:29.434Z,97.50
2023-03-26T19:31:16.262Z,97.50
2023-03-26T19:33:54.261Z,97.40
2023-03-26T19:36:32.810Z,97.30
2023-03-26T19:39:05.762Z,97.30
2023-03-26T19:41:40.786Z,97.20
2023-03-26T19:44:31.457Z,97.20
2023-03-26T19:47:05.852Z,97.20
2023-03-26T19:49:56.396Z,97.30
2023-03-26T19:52:38.252Z,97.30
2023-03-26T19:55:10.744Z,97.30
2023-03-26T19:57:38.586Z,97.30
2023-03-26T20:00:15.584Z,97.40
2023-03-26T20:02:46.387Z,97.40
2023-03-26T20:05:25.901Z,97.50
2023-03-26T20:08:00.605Z,97.50
2023-03-26T20:10:29.147Z,97.50
2023-03-26T20:13:01.385Z,97.40
2023-03-26T20:15:34.672Z,97.40
2023-03-26T20:18:04.334Z,97.40
2023-03-26T20:20:33.909Z,97.40
2023-03-26T20:23:11.109Z,97.30
2023-03-26T20:25:49.456Z,97.30
2023-03-26T20:28:20.568Z,97.30
2023-03-26T20:30:51.978Z,97.20
2023-03-26T20:33:27.953Z,97.30
2023-03-26T20:35:58.909Z,97.30
2023-03-26T20:38:39.209Z,97.20
2023-03-26T20:41:26.488Z,97.30
2023-03-26T20:44:00.059Z,97.20
2023-03-26T20:46:31.291Z,97.20
2023-03-26T20:49:03.026Z,97.20
2023-03-26T20:51:33.345Z,97.10
2023-03-26T20:54:00.801Z,97.10
2023-03-26T20:56:28.587Z,97.10
2023-03-26T21:01:29.837Z,97.10
2023-03-26T21:04:10.162Z,97.10
2023-03-26T21:06:42.924Z,97.10
2023-03-26T21:09:15.934Z,97.10
2023-03-26T21:12:15.825Z,97.20
2023-03-26T21:14:46.637Z,97.10
2023-03-26T21:17:17.098Z,97.10
2023-03-26T21:19:45.263Z,97.10
2023-03-26T21:22:36.152Z,97.10
2023-03-26T21:25:26.082Z,97.10
2023-03-26T21:28:35.425Z,97.10
2023-03-26T21:31:21.102Z,97.10
2023-03-26T21:33:52.376Z,97.10
2023-03-26T21:36:22.967Z,97.10
2023-03-26T21:38:54.865Z,96.90
2023-03-26T21:41:26.085Z,96.70
2023-03-26T21:43:54.845Z,96.80
2023-03-26T21:46:22.075Z,96.40
2023-03-26T21:48:49.522Z,96.20
2023-03-26T21:51:19.354Z,96.20
2023-03-26T21:53:49.590Z,96.00
2023-03-26T21:56:45.794Z,96.00
2023-03-26T21:59:45.069Z,96.20
2023-03-26T22:02:38.130Z,96.10
2023-03-26T22:05:14.866Z,96.00
2023-03-26T22:08:03.240Z,95.80
2023-03-26T22:10:35.310Z,96.10
2023-03-26T22:13:04.906Z,96.20
2023-03-26T22:15:34.755Z,96.20
2023-03-26T22:18:03.219Z,96.00
2023-03-26T22:20:31.748Z,95.50
2023-03-26T22:23:00.432Z,95.00
2023-03-26T22:25:29.824Z,95.00
2023-03-26T22:27:59.455Z,95.00
2023-03-26T22:30:31.385Z,95.10
2023-03-26T22:32:59.088Z,95.00
2023-03-26T22:35:29.402Z,95.00
2023-03-26T22:38:00.731Z,95.00
2023-03-26T22:40:31.472Z,95.20
2023-03-26T22:42:58.452Z,95.50
2023-03-26T22:45:28.210Z,95.80
2023-03-26T22:48:03.918Z,95.90
2023-03-26T22:50:33.500Z,95.90
2023-03-26T22:53:00.603Z,96.00
2023-03-26T22:55:29.123Z,96.00
2023-03-26T22:57:58.617Z,96.00
2023-03-26T23:00:28.566Z,95.80
2023-03-26T23:03:00.390Z,95.60
2023-03-26T23:05:28.615Z,95.40
2023-03-26T23:07:58.796Z,94.70
2023-03-26T23:10:28.321Z,94.60
2023-03-26T23:12:55.244Z,94.50
2023-03-26T23:15:26.218Z,94.50
2023-03-26T23:18:00.419Z,94.00
2023-03-26T23:20:29.175Z,94.10
2023-03-26T23:22:58.126Z,93.90
2023-03-26T23:25:25.136Z,94.00
2023-03-26T23:27:55.624Z,94.30
2023-03-26T23:30:24.127Z,94.40
2023-03-26T23:32:51.583Z,94.60
2023-03-26T23:35:21.309Z,94.70
2023-03-26T23:37:51.093Z,94.50
2023-03-26T23:40:18.714Z,94.90
2023-03-26T23:42:50.953Z,95.30
2023-03-26T23:45:19.431Z,95.40
2023-03-26T23:47:48.041Z,95.30
2023-03-26T23:50:18.597Z,95.20
2023-03-26T23:52:47.327Z,95.20
2023-03-26T23:55:14.947Z,94.90
2023-03-26T23:57:43.413Z,94.50
